Latest Weather Observations for Broome

IDW60801

Issued at 7:03 pm WST Saturday 16 December 2017 (issued every 30 minutes, with the page automatically refreshed every 10 minutes)

About weather observations | Map of weather stations | Latest weather observations for WA | Other Formats
Station Details ID: 003003 Name: BROOME AIRPORT Lat: -17.95 Lon: 122.24 Height: 7.42 m
Data from the previous 72 hours. | See also: Recent months at Broome
Date/Time
WST
Temp
°C
App
Temp
°C
Dew
Point
°C
Rel
Hum
%
Delta-T
°C
Wind Press
QNH
hPa
Press
MSL
hPa
Rain since
9am
mm
Dir  Spd
km/h
Gust
km/h
Spd
kts
Gust
kts
16/07:00pm 29.8 32.7 24.4 73 3.8 W 17 24 9 13 1006.7 1006.6 0.0
16/06:30pm 30.0 32.8 24.3 71 4.0 W 17 26 9 14 1006.4 1006.3 0.0
16/06:00pm 30.6 32.7 24.1 68 4.5 W 20 30 11 16 1006.0 1005.9 0.0
16/05:30pm 31.1 33.3 23.9 65 5.0 W 19 26 10 14 1006.3 1006.2 0.0
16/05:00pm 31.4 33.0 23.9 64 5.2 W 22 32 12 17 1006.0 1005.9 0.0
16/04:30pm 31.5 33.0 23.7 63 5.4 W 22 30 12 16 1006.2 1006.1 0.0
16/04:00pm 32.4 34.0 23.8 60 6.0 WNW 22 32 12 17 1006.4 1006.3 0.0
16/03:30pm 32.1 34.0 24.4 63 5.4 WNW 22 32 12 17 1005.9 1005.8 0.0
16/03:00pm 32.4 33.9 24.3 62 5.7 WNW 24 33 13 18 1005.6 1005.5 0.0
16/02:30pm 32.8 34.3 24.4 61 5.9 WNW 24 33 13 18 1005.9 1005.8 0.0
16/02:00pm 32.6 34.6 24.5 62 5.7 WNW 22 32 12 17 1006.4 1006.3 0.0
16/01:30pm 32.5 34.8 24.5 62 5.6 WNW 20 30 11 16 1006.5 1006.4 0.0
16/01:00pm 32.2 34.4 24.8 65 5.2 WNW 22 30 12 16 1006.7 1006.6 0.0
16/12:30pm 32.9 34.9 23.9 59 6.3 WNW 20 28 11 15 1007.2 1007.1 0.0
16/12:00pm 33.9 36.6 24.2 57 6.8 WNW 17 22 9 12 1007.7 1007.6 0.0
16/11:30am 33.0 35.7 24.2 60 6.2 W 17 24 9 13 1008.0 1007.9 0.0
16/11:00am 32.6 35.4 24.3 61 5.8 WNW 17 24 9 13 1008.3 1008.2 0.0
16/10:30am 32.7 35.3 24.0 60 6.1 WNW 17 24 9 13 1008.4 1008.3 0.0
16/10:00am 32.2 34.8 24.0 62 5.7 WNW 17 24 9 13 1009.0 1008.9 0.0
16/09:30am 31.9 34.7 24.3 64 5.3 W 17 24 9 13 1009.1 1009.0 0.0
16/09:00am 31.3 34.3 24.6 67 4.7 W 17 24 9 13 1009.4 1009.3 0.0
16/08:30am 31.8 35.5 24.5 65 5.1 W 13 20 7 11 1009.5 1009.4 0.0
16/08:00am 30.6 34.3 24.6 70 4.2 W 13 19 7 10 1009.5 1009.4 0.0
16/07:30am 30.4 35.4 24.8 72 3.9 NNW 7 11 4 6 1009.4 1009.3 0.0
16/07:00am 29.4 34.5 25.0 77 3.1 NNE 7 11 4 6 1009.5 1009.4 0.0
16/06:30am 29.3 34.4 24.9 77 3.1 NNE 7 9 4 5 1009.4 1009.3 0.0
16/06:00am 28.5 33.9 25.1 82 2.4 N 6 7 3 4 1009.2 1009.1 0.0
16/05:30am 28.0 33.8 25.2 85 2.0 NE 4 9 2 5 1008.9 1008.8 0.0
16/05:00am 28.2 33.2 25.4 85 2.0 ENE 9 13 5 7 1008.7 1008.6 0.0
16/04:30am 29.2 35.9 25.4 80 2.7 CALM 0 6 0 3 1008.7 1008.6 0.0
16/04:00am 29.2 34.3 24.9 77 3.0 WNW 7 11 4 6 1008.0 1007.9 0.0
16/03:30am 29.4 34.6 25.1 77 3.0 NNW 7 11 4 6 1007.6 1007.5 0.0
16/03:00am 29.4 33.4 25.0 77 3.1 WNW 13 17 7 9 1006.8 1006.7 0.0
16/02:30am 29.4 32.6 25.0 77 3.1 WNW 17 24 9 13 1006.4 1006.3 0.0
16/02:00am 29.4 32.4 24.7 76 3.3 WNW 17 26 9 14 1006.4 1006.3 0.0
16/01:30am 29.4 32.6 25.0 77 3.1 NW 17 24 9 13 1006.0 1005.9 0.0
16/01:00am 29.2 32.4 24.9 77 3.0 NW 17 24 9 13 1005.6 1005.5 0.0
16/12:30am 29.2 32.0 24.9 77 3.0 NW 19 28 10 15 1005.7 1005.6 0.0
16/12:00am 29.2 32.6 24.6 76 3.2 WNW 15 20 8 11 1006.1 1006.0 0.0
 
Date/Time
WST
Temp
°C
App
Temp
°C
Dew
Point
°C
Rel
Hum
%
Delta-T
°C
Wind Press
QNH
hPa
Press
MSL
hPa
Rain since
9am
mm
Dir  Spd
km/h
Gust
km/h
Spd
kts
Gust
kts
15/11:30pm 29.2 32.6 24.6 76 3.2 WNW 15 20 8 11 1006.8 1006.7 0.0
15/11:00pm 29.1 33.3 24.8 77 3.0 WNW 11 15 6 8 1007.5 1007.4 0.0
15/10:30pm 29.4 33.6 24.8 76 3.2 W 11 15 6 8 1008.1 1008.0 0.0
15/10:00pm 29.6 34.7 24.9 76 3.3 SW 7 11 4 6 1008.4 1008.3 0.0
15/09:30pm 29.7 34.4 24.9 75 3.4 S 9 15 5 8 1008.2 1008.1 0.0
15/09:00pm 29.8 33.0 25.0 75 3.4 W 17 22 9 12 1007.4 1007.3 0.0
15/08:30pm 29.9 32.7 24.9 74 3.5 W 19 24 10 13 1007.1 1007.0 0.0
15/08:00pm 30.0 33.2 24.9 74 3.6 WSW 17 24 9 13 1006.9 1006.8 0.0
15/07:30pm 29.9 33.0 24.8 74 3.6 W 17 24 9 13 1006.4 1006.3 0.0
15/07:00pm 30.0 32.4 24.6 73 3.8 W 20 30 11 16 1005.8 1005.7 0.0
15/06:30pm 30.2 32.5 24.5 71 4.0 W 20 26 11 14 1005.2 1005.1 0.0
15/06:00pm 30.5 32.6 24.7 71 4.1 W 22 30 12 16 1005.4 1005.3 0.0
15/05:30pm 30.7 32.6 24.4 69 4.4 WNW 22 32 12 17 1004.7 1004.6 0.0
15/05:00pm 31.3 32.6 24.1 65 5.0 WNW 24 35 13 19 1004.3 1004.2 0.0
15/04:30pm 31.4 32.7 24.1 65 5.1 WNW 24 35 13 19 1004.5 1004.4 0.0
15/04:00pm 32.1 33.0 23.9 62 5.7 WNW 26 33 14 18 1004.3 1004.2 0.0
15/03:30pm 32.1 34.2 23.8 61 5.8 W 19 28 10 15 1004.5 1004.4 0.0
15/03:00pm 32.7 34.4 24.0 60 6.1 W 22 32 12 17 1004.8 1004.7 0.0
15/02:30pm 32.5 34.4 23.7 59 6.1 W 20 - 11 - 1005.1 1005.0 0.0
15/02:00pm 32.5 33.6 23.7 59 6.1 WNW 24 33 13 18 1005.4 1005.3 0.0
15/01:30pm 32.1 32.9 23.8 61 5.8 WNW 26 35 14 19 1005.8 1005.7 0.0
15/01:00pm 32.4 33.6 23.8 60 6.0 W 24 33 13 18 1006.1 1006.0 0.0
15/12:30pm 32.6 33.9 24.0 60 6.0 WNW 24 32 13 17 1006.2 1006.1 0.0
15/12:00pm 32.8 34.3 24.4 61 5.9 WNW 24 33 13 18 1006.6 1006.5 0.0
15/11:30am 32.5 34.4 24.4 62 5.7 W 22 33 12 18 1007.2 1007.1 0.0
15/11:00am 31.9 34.4 24.7 65 5.1 WNW 20 28 11 15 1007.5 1007.4 0.0
15/10:30am 31.7 33.8 24.1 64 5.3 W 20 30 11 16 1007.7 1007.6 0.0
15/10:00am 31.8 33.9 24.7 66 5.0 W 22 32 12 17 1008.0 1007.9 0.0
15/09:30am 31.7 34.4 25.0 67 4.7 W 20 30 11 16 1008.2 1008.1 0.0
15/09:00am 32.0 34.2 24.8 65 5.1 W 22 30 12 16 1008.0 1007.9 0.0
15/08:30am 31.4 34.2 24.9 68 4.6 W 19 26 10 14 1008.3 1008.2 0.0
15/08:00am 31.3 34.0 24.8 68 4.6 W 19 26 10 14 1008.1 1008.0 0.0
15/07:30am 31.1 33.6 24.7 68 4.5 WSW 20 30 11 16 1007.7 1007.6 0.0
15/07:00am 30.7 33.7 24.6 70 4.3 SW 17 26 9 14 1007.6 1007.5 0.0
15/06:30am 30.2 33.2 24.6 72 3.9 SW 17 26 9 14 1007.5 1007.4 0.0
15/06:00am 29.7 31.5 24.2 72 3.8 WSW 22 28 12 15 1007.0 1006.9 0.0
15/05:30am 29.3 31.3 24.0 73 3.7 SW 20 28 11 15 1006.5 1006.4 0.0
15/05:00am 29.0 31.9 23.8 73 3.6 WSW 15 20 8 11 1006.3 1006.2 0.0
15/04:30am 29.0 32.8 24.0 74 3.5 WSW 11 17 6 9 1006.0 1005.9 0.0
15/04:00am 28.7 32.7 24.4 77 3.0 WSW 11 15 6 8 1005.3 1005.2 0.0
15/03:30am 28.9 33.0 24.5 77 3.1 SSW 11 19 6 10 1005.3 1005.2 0.0
15/03:00am 29.4 31.9 23.8 72 3.9 SSW 17 24 9 13 1005.5 1005.4 0.0
15/02:30am 29.5 31.6 23.7 71 4.0 SSW 19 26 10 14 1005.6 1005.5 0.0
15/02:00am 29.5 31.3 23.6 70 4.1 SSW 20 30 11 16 1005.9 1005.8 0.0
15/01:30am 29.4 30.8 23.6 71 4.0 WSW 22 28 12 15 1005.3 1005.2 0.0
15/01:00am 29.5 31.9 23.7 71 4.0 WSW 17 24 9 13 1005.5 1005.4 0.0
15/12:30am 29.5 31.9 23.6 70 4.1 WSW 17 24 9 13 1006.0 1005.9 0.0
15/12:00am 29.6 31.8 24.0 72 3.9 WSW 19 28 10 15 1006.1 1006.0 0.0
 
Date/Time
WST
Temp
°C
App
Temp
°C
Dew
Point
°C
Rel
Hum
%
Delta-T
°C
Wind Press
QNH
hPa
Press
MSL
hPa
Rain since
9am
mm
Dir  Spd
km/h
Gust
km/h
Spd
kts
Gust
kts
14/11:30pm 29.7 32.4 24.1 72 3.9 W 17 26 9 14 1006.4 1006.3 0.0
14/11:00pm 29.7 32.4 24.2 72 3.8 SW 17 24 9 13 1007.2 1007.1 0.0
14/10:30pm 29.7 32.3 24.9 75 3.4 W 20 30 11 16 1006.8 1006.7 0.0
14/10:00pm 29.7 31.9 24.9 75 3.4 W 22 32 12 17 1007.2 1007.1 0.0
14/09:30pm 29.7 31.8 24.7 74 3.5 W 22 33 12 18 1007.2 1007.1 0.0
14/09:00pm 29.8 31.6 24.2 72 3.9 W 22 32 12 17 1007.3 1007.2 0.0
14/08:30pm 29.8 31.2 23.6 69 4.3 W 22 30 12 16 1007.0 1006.9 0.0
14/08:00pm 29.8 31.7 23.7 70 4.2 W 20 30 11 16 1006.8 1006.7 0.0
14/07:30pm 29.7 31.6 24.4 73 3.7 WNW 22 30 12 16 1006.7 1006.6 0.0
14/07:00pm 29.8 31.0 23.9 70 4.1 WNW 24 33 13 18 1006.3 1006.2 0.0
14/06:30pm 29.9 31.5 23.8 70 4.2 WNW 22 35 12 19 1005.9 1005.8 0.0
14/06:00pm 30.2 31.4 23.9 69 4.4 WNW 24 33 13 18 1005.5 1005.4 0.0
14/05:30pm 30.8 31.3 23.9 66 4.8 WNW 28 35 15 19 1005.2 1005.1 0.0
14/05:00pm 30.9 31.4 24.0 66 4.8 WNW 28 39 15 21 1005.1 1005.0 0.0
14/04:30pm 31.5 32.1 24.1 65 5.2 WNW 28 35 15 19 1005.0 1004.9 0.0
14/04:00pm 31.6 31.6 23.8 63 5.4 WNW 30 41 16 22 1005.0 1004.9 0.0
14/03:30pm 32.1 32.9 24.4 63 5.4 WNW 28 39 15 21 1005.2 1005.1 0.0
14/03:00pm 32.0 33.3 24.6 65 5.2 WNW 26 35 14 19 1005.6 1005.5 0.0
14/02:30pm 32.1 33.1 24.7 65 5.2 WNW 28 41 15 22 1005.9 1005.8 0.0
14/02:00pm 31.9 32.9 24.8 66 5.0 WNW 28 39 15 21 1006.3 1006.2 0.0
14/01:30pm 32.4 33.0 24.7 64 5.4 WNW 30 39 16 21 1006.5 1006.4 0.0
14/01:00pm 31.5 32.8 24.7 67 4.8 WNW 26 35 14 19 1007.0 1006.9 0.0
14/12:30pm 32.7 33.8 24.9 63 5.5 W 28 35 15 19 1007.2 1007.1 0.0
14/12:00pm 32.4 34.1 24.6 63 5.5 W 24 32 13 17 1007.7 1007.6 0.0
14/11:30am 32.6 34.2 24.5 62 5.7 W 24 33 13 18 1007.9 1007.8 0.0
14/11:00am 32.7 33.8 24.3 61 5.9 W 26 35 14 19 1007.9 1007.8 0.0
14/10:30am 32.6 34.3 24.6 62 5.6 WSW 24 35 13 19 1008.1 1008.0 0.0
14/10:00am 32.4 34.3 25.0 65 5.2 W 24 33 13 18 1008.4 1008.3 0.0
14/09:30am 32.3 33.1 24.5 63 5.5 WSW 28 41 15 22 1008.3 1008.2 0.0
14/09:00am 32.4 33.1 24.3 62 5.7 WSW 28 37 15 20 1008.5 1008.4 0.0
14/08:30am 31.7 32.6 24.0 63 5.4 WSW 26 37 14 20 1008.5 1008.4 0.0
14/08:00am 31.7 32.1 23.8 63 5.5 WSW 28 37 15 20 1008.3 1008.2 0.0
14/07:30am 31.2 31.5 24.2 66 4.9 WSW 30 37 16 20 1008.0 1007.9 0.0
14/07:00am 31.0 32.5 24.4 68 4.6 WSW 24 35 13 19 1008.0 1007.9 0.0
14/06:30am 30.8 32.3 24.4 68 4.5 WSW 24 32 13 17 1007.6 1007.5 0.0
14/06:00am 30.3 32.3 24.0 69 4.4 W 20 30 11 16 1007.3 1007.2 0.0
14/05:30am 30.2 31.7 23.7 68 4.5 W 22 32 12 17 1006.9 1006.8 0.0
14/05:00am 30.1 31.4 23.4 67 4.6 WSW 22 32 12 17 1006.3 1006.2 0.0
14/04:30am 30.0 32.2 24.0 70 4.2 WSW 19 26 10 14 1006.1 1006.0 0.0
14/04:00am 30.3 31.8 23.0 65 5.0 W 20 28 11 15 1005.8 1005.7 0.0
14/03:30am 30.3 32.7 23.7 68 4.6 WSW 17 28 9 15 1005.6 1005.5 0.0
14/03:00am 30.2 33.0 23.7 68 4.5 WSW 15 22 8 12 1005.7 1005.6 0.0
14/02:30am 30.2 31.9 23.4 67 4.7 WSW 20 30 11 16 1005.6 1005.5 0.0
14/02:00am 29.9 31.9 24.0 70 4.1 WSW 20 32 11 17 1005.5 1005.4 0.0
14/01:30am 29.9 31.9 24.5 73 3.8 WSW 22 32 12 17 1005.6 1005.5 0.0
14/01:00am 29.7 32.2 24.7 74 3.5 WSW 20 30 11 16 1005.8 1005.7 0.0
14/12:30am 29.8 31.6 24.8 74 3.5 WSW 24 32 13 17 1006.0 1005.9 0.0
14/12:00am 29.7 31.8 25.3 77 3.1 WSW 24 35 13 19 1006.5 1006.4 0.0
 
Date/Time
WST
Temp
°C
App
Temp
°C
Dew
Point
°C
Rel
Hum
%
Delta-T
°C
Wind Press
QNH
hPa
Press
MSL
hPa
Rain since
9am
mm
Dir  Spd
km/h
Gust
km/h
Spd
kts
Gust
kts
13/11:30pm 29.7 32.5 25.3 77 3.1 W 20 28 11 15 1007.0 1006.9 0.0
13/11:00pm 29.8 32.8 25.3 77 3.2 W 19 28 10 15 1007.4 1007.3 0.0
13/10:30pm 29.9 32.8 25.4 77 3.2 W 20 30 11 16 1007.8 1007.7 0.0
13/10:00pm 29.9 32.7 25.2 76 3.3 W 20 28 11 15 1008.0 1007.9 0.0
13/09:30pm 30.0 32.8 25.0 74 3.5 W 19 26 10 14 1008.2 1008.1 0.0
13/09:00pm 29.9 32.7 25.2 76 3.3 W 20 28 11 15 1007.9 1007.8 0.0
13/08:30pm 29.9 32.3 25.2 76 3.3 W 22 30 12 16 1007.8 1007.7 0.0
13/08:00pm 29.9 32.3 25.2 76 3.3 W 22 30 12 16 1007.5 1007.4 0.0
13/07:30pm 30.1 32.2 25.4 76 3.3 W 24 35 13 19 1007.2 1007.1 0.0

Other Formats:

Comma delimited format used in spreadsheet applications
http://www.bom.gov.au/fwo/IDW60801/IDW60801.94203.axf

JavaScript Object Notation format (JSON) in row-major order
http://www.bom.gov.au/fwo/IDW60801/IDW60801.94203.json